createdAt,value
2023-02-05T00:00:12.870Z,1019.59
2023-02-05T00:01:13.897Z,1019.58
2023-02-05T00:02:13.147Z,1019.55
2023-02-05T00:03:13.139Z,1019.57
2023-02-05T00:04:13.758Z,1019.56
2023-02-05T00:05:13.735Z,1019.52
2023-02-05T00:06:14.064Z,1019.53
2023-02-05T00:07:13.070Z,1019.47
2023-02-05T00:08:12.977Z,1019.45
2023-02-05T00:09:13.108Z,1019.45
2023-02-05T00:10:13.228Z,1019.45
2023-02-05T00:11:13.866Z,1019.43
2023-02-05T00:12:13.926Z,1019.42
2023-02-05T00:13:12.961Z,1019.37
2023-02-05T00:14:12.903Z,1019.37
2023-02-05T00:15:12.790Z,1019.34
2023-02-05T00:16:13.877Z,1019.30
2023-02-05T00:17:12.842Z,1019.28
2023-02-05T00:18:13.859Z,1019.25
2023-02-05T00:19:13.990Z,1019.27
2023-02-05T00:20:13.061Z,1019.29
2023-02-05T00:21:13.192Z,1019.27
2023-02-05T00:22:13.322Z,1019.26
2023-02-05T00:23:13.618Z,1019.29
2023-02-05T00:24:13.614Z,1019.26
2023-02-05T00:25:13.634Z,1019.24
2023-02-05T00:26:13.542Z,1019.22
2023-02-05T00:27:13.529Z,1019.20
2023-02-05T00:28:13.614Z,1019.18
2023-02-05T00:29:13.534Z,1019.15
2023-02-05T00:30:13.481Z,1019.11
2023-02-05T00:31:15.150Z,1019.10
2023-02-05T00:32:13.719Z,1019.07
2023-02-05T00:33:13.999Z,1019.10
2023-02-05T00:34:13.270Z,1019.09
2023-02-05T00:35:13.242Z,1019.05
2023-02-05T00:36:13.148Z,1019.04
2023-02-05T00:37:13.321Z,1019.02
2023-02-05T00:38:13.262Z,1019.01
2023-02-05T00:39:13.261Z,1019.02
2023-02-05T00:40:13.300Z,1019.04
2023-02-05T00:41:13.624Z,1019.09
2023-02-05T00:42:13.760Z,1019.10
2023-02-05T00:43:13.834Z,1019.07
2023-02-05T00:44:13.824Z,1019.07
2023-02-05T00:45:18.786Z,1019.04
2023-02-05T00:46:14.215Z,1019.03
2023-02-05T00:47:44.728Z,1018.97
2023-02-05T00:48:18.711Z,1018.98
2023-02-05T00:49:13.625Z,1018.94
2023-02-05T00:50:13.553Z,1018.90
2023-02-05T00:51:13.461Z,1018.90
2023-02-05T00:52:13.512Z,1018.86
2023-02-05T00:53:13.646Z,1018.79
2023-02-05T00:54:13.695Z,1018.78
2023-02-05T00:55:19.933Z,1018.77
2023-02-05T00:56:12.903Z,1018.77
2023-02-05T00:57:13.064Z,1018.76
2023-02-05T00:58:13.019Z,1018.74
2023-02-05T00:59:13.077Z,1018.73
2023-02-05T01:00:13.371Z,1018.75
2023-02-05T01:01:13.425Z,1018.74
2023-02-05T01:02:13.834Z,1018.73
2023-02-05T01:03:13.862Z,1018.76
2023-02-05T01:04:13.855Z,1018.75
2023-02-05T01:05:14.012Z,1018.68
2023-02-05T01:06:12.954Z,1018.67
2023-02-05T01:07:12.926Z,1018.61
2023-02-05T01:08:13.109Z,1018.61
2023-02-05T01:09:13.046Z,1018.62
2023-02-05T01:10:13.061Z,1018.54
2023-02-05T01:11:13.174Z,1018.57
2023-02-05T01:12:13.340Z,1018.55
2023-02-05T01:13:13.375Z,1018.52
2023-02-05T01:14:13.358Z,1018.54
2023-02-05T01:15:13.507Z,1018.52
2023-02-05T01:16:13.955Z,1018.50
2023-02-05T01:17:13.221Z,1018.50
2023-02-05T01:18:13.417Z,1018.51
2023-02-05T01:19:13.367Z,1018.54
2023-02-05T01:20:13.441Z,1018.51
2023-02-05T01:21:13.620Z,1018.54
2023-02-05T01:22:13.462Z,1018.54
2023-02-05T01:23:13.411Z,1018.47
2023-02-05T01:24:13.286Z,1018.40
2023-02-05T01:25:13.475Z,1018.35
2023-02-05T01:26:13.339Z,1018.27
2023-02-05T01:27:13.369Z,1018.22
2023-02-05T01:28:13.617Z,1018.23
2023-02-05T01:29:14.056Z,1018.21
2023-02-05T01:30:13.107Z,1018.19
2023-02-05T01:31:13.193Z,1018.16
2023-02-05T01:32:13.519Z,1018.16
2023-02-05T01:33:13.582Z,1018.21
2023-02-05T01:34:13.790Z,1018.26
2023-02-05T01:35:13.960Z,1018.31
2023-02-05T01:36:13.131Z,1018.34
2023-02-05T01:37:13.072Z,1018.40
2023-02-05T01:38:13.317Z,1018.40
2023-02-05T01:39:13.243Z,1018.46
2023-02-05T01:40:13.210Z,1018.46
2023-02-05T01:41:13.187Z,1018.40
2023-02-05T01:42:13.599Z,1018.45
2023-02-05T01:43:13.669Z,1018.44
2023-02-05T01:44:18.656Z,1018.44
2023-02-05T01:45:13.837Z,1018.43
2023-02-05T01:46:13.786Z,1018.48
2023-02-05T01:47:14.245Z,1018.44
2023-02-05T01:48:13.419Z,1018.41
2023-02-05T01:49:14.888Z,1018.32
2023-02-05T01:50:13.168Z,1018.36
2023-02-05T01:51:13.181Z,1018.29
2023-02-05T01:52:13.325Z,1018.29
2023-02-05T01:53:13.252Z,1018.27
2023-02-05T01:54:13.470Z,1018.27
2023-02-05T01:55:13.925Z,1018.30
2023-02-05T01:56:12.841Z,1018.32
2023-02-05T01:57:14.091Z,1018.30
2023-02-05T01:58:13.303Z,1018.29
2023-02-05T01:59:13.419Z,1018.29
2023-02-05T02:00:13.569Z,1018.36
2023-02-05T02:01:13.730Z,1018.36
2023-02-05T02:02:14.144Z,1018.35
2023-02-05T02:03:13.131Z,1018.31
2023-02-05T02:04:13.250Z,1018.23
2023-02-05T02:05:13.390Z,1018.22
2023-02-05T02:06:13.300Z,1018.18
2023-02-05T02:07:13.388Z,1018.13
2023-02-05T02:08:13.356Z,1018.11
2023-02-05T02:09:13.530Z,1018.03
2023-02-05T02:10:13.394Z,1018.07
2023-02-05T02:11:13.306Z,1018.05
2023-02-05T02:12:13.183Z,1018.05
2023-02-05T02:13:13.098Z,1018.05
2023-02-05T02:14:13.375Z,1018.10
2023-02-05T02:15:13.521Z,1018.11
2023-02-05T02:16:13.560Z,1018.13
2023-02-05T02:17:14.679Z,1018.14
2023-02-05T02:18:14.084Z,1018.14
2023-02-05T02:19:13.059Z,1018.18
2023-02-05T02:20:13.121Z,1018.20
2023-02-05T02:21:13.304Z,1018.20
2023-02-05T02:22:13.368Z,1018.21
2023-02-05T02:23:13.385Z,1018.24
2023-02-05T02:24:13.275Z,1018.25
2023-02-05T02:25:13.282Z,1018.26
2023-02-05T02:26:13.219Z,1018.30
2023-02-05T02:27:13.314Z,1018.37
2023-02-05T02:28:13.325Z,1018.36
2023-02-05T02:29:13.196Z,1018.35
2023-02-05T02:30:13.318Z,1018.36
2023-02-05T02:31:13.319Z,1018.33
2023-02-05T02:32:13.329Z,1018.32
2023-02-05T02:33:13.272Z,1018.31
2023-02-05T02:34:13.493Z,1018.33
2023-02-05T02:35:13.499Z,1018.32
2023-02-05T02:36:13.403Z,1018.28
2023-02-05T02:37:13.328Z,1018.25
2023-02-05T02:38:13.304Z,1018.25
2023-02-05T02:39:13.351Z,1018.28
2023-02-05T02:40:13.367Z,1018.27
2023-02-05T02:41:13.368Z,1018.32
2023-02-05T02:42:13.371Z,1018.35
2023-02-05T02:43:13.457Z,1018.41
2023-02-05T02:44:14.047Z,1018.45
2023-02-05T02:45:13.113Z,1018.41
2023-02-05T02:46:13.297Z,1018.41
2023-02-05T02:47:13.538Z,1018.39
2023-02-05T02:48:13.519Z,1018.34
2023-02-05T02:49:13.573Z,1018.32
2023-02-05T02:50:14.022Z,1018.22
2023-02-05T02:51:13.019Z,1018.21
2023-02-05T02:52:12.962Z,1018.17
2023-02-05T02:53:12.946Z,1018.13
2023-02-05T02:54:13.359Z,1018.18
2023-02-05T02:55:13.556Z,1018.14
2023-02-05T02:56:13.801Z,1018.14
2023-02-05T02:57:13.705Z,1018.17
2023-02-05T02:58:13.961Z,1018.16
2023-02-05T02:59:12.959Z,1018.20
2023-02-05T03:00:12.894Z,1018.19
2023-02-05T03:01:12.989Z,1018.22
2023-02-05T03:02:13.252Z,1018.16
2023-02-05T03:03:13.182Z,1018.18
2023-02-05T03:04:13.417Z,1018.26
2023-02-05T03:05:13.766Z,1018.23
2023-02-05T03:06:14.109Z,1018.19
2023-02-05T03:07:13.189Z,1018.16
2023-02-05T03:08:13.509Z,1018.14
2023-02-05T03:09:13.871Z,1018.13
2023-02-05T03:10:13.827Z,1018.16
2023-02-05T03:11:13.744Z,1018.11
2023-02-05T03:12:13.891Z,1018.12
2023-02-05T03:13:12.902Z,1018.08
2023-02-05T03:14:12.762Z,1018.10
2023-02-05T03:15:13.654Z,1018.01
2023-02-05T03:16:13.611Z,1017.95
2023-02-05T03:17:14.141Z,1017.97
2023-02-05T03:18:13.298Z,1017.94
2023-02-05T03:19:13.431Z,1017.94
2023-02-05T03:20:13.528Z,1017.92
2023-02-05T03:21:13.414Z,1017.89
2023-02-05T03:22:13.803Z,1017.92
2023-02-05T03:23:13.809Z,1017.86
2023-02-05T03:24:13.772Z,1017.88
2023-02-05T03:25:13.758Z,1017.85
2023-02-05T03:26:13.858Z,1017.80
2023-02-05T03:27:13.856Z,1017.75
2023-02-05T03:28:14.248Z,1017.74
2023-02-05T03:29:13.862Z,1017.75
2023-02-05T03:30:13.811Z,1017.78
2023-02-05T03:31:13.978Z,1017.80
2023-02-05T03:32:12.884Z,1017.76
2023-02-05T03:33:13.875Z,1017.77
2023-02-05T03:34:13.955Z,1017.76
2023-02-05T03:35:13.043Z,1017.73
2023-02-05T03:36:13.420Z,1017.71
2023-02-05T03:37:13.396Z,1017.63
2023-02-05T03:38:13.458Z,1017.66
2023-02-05T03:39:13.489Z,1017.68
2023-02-05T03:40:13.573Z,1017.71
2023-02-05T03:41:13.854Z,1017.74
2023-02-05T03:42:14.793Z,1017.72
2023-02-05T03:43:13.982Z,1017.74
2023-02-05T03:44:13.200Z,1017.69
2023-02-05T03:45:13.147Z,1017.63
2023-02-05T03:46:13.470Z,1017.60
2023-02-05T03:47:13.651Z,1017.53
2023-02-05T03:48:13.946Z,1017.52
2023-02-05T03:49:12.887Z,1017.48
2023-02-05T03:50:12.867Z,1017.47
2023-02-05T03:51:14.086Z,1017.44
2023-02-05T03:52:13.087Z,1017.39
2023-02-05T03:53:13.235Z,1017.38
2023-02-05T03:54:13.308Z,1017.34
2023-02-05T03:55:13.641Z,1017.29
2023-02-05T03:56:13.847Z,1017.31
2023-02-05T03:57:13.072Z,1017.34
2023-02-05T03:58:13.127Z,1017.34
2023-02-05T03:59:13.648Z,1017.35
2023-02-05T04:00:13.650Z,1017.34
2023-02-05T04:01:13.970Z,1017.34
2023-02-05T04:02:12.997Z,1017.37
2023-02-05T04:03:13.031Z,1017.45
2023-02-05T04:04:13.231Z,1017.51
2023-02-05T04:05:13.153Z,1017.54
2023-02-05T04:06:13.098Z,1017.60
2023-02-05T04:07:13.105Z,1017.64
2023-02-05T04:08:13.053Z,1017.70
2023-02-05T04:09:13.074Z,1017.74
2023-02-05T04:10:13.081Z,1017.75
2023-02-05T04:11:13.081Z,1017.80
2023-02-05T04:12:13.263Z,1017.81
2023-02-05T04:13:13.962Z,1017.83
2023-02-05T04:14:13.391Z,1017.82
2023-02-05T04:15:13.938Z,1017.82
2023-02-05T04:16:13.098Z,1017.82
2023-02-05T04:17:13.282Z,1017.80
2023-02-05T04:18:13.165Z,1017.79
2023-02-05T04:19:18.646Z,1017.75
2023-02-05T04:20:13.902Z,1017.75
2023-02-05T04:21:13.314Z,1017.76
2023-02-05T04:22:13.502Z,1017.80
2023-02-05T04:23:13.383Z,1017.78
2023-02-05T04:24:13.552Z,1017.78
2023-02-05T04:25:13.643Z,1017.75
2023-02-05T04:26:14.045Z,1017.79
2023-02-05T04:27:13.013Z,1017.81
2023-02-05T04:28:13.114Z,1017.84
2023-02-05T04:29:13.155Z,1017.84
2023-02-05T04:30:13.332Z,1017.84
2023-02-05T04:31:13.467Z,1017.85
2023-02-05T04:32:18.516Z,1017.87
2023-02-05T04:33:13.615Z,1017.90
2023-02-05T04:34:13.578Z,1017.90
2023-02-05T04:35:13.638Z,1017.88
2023-02-05T04:36:13.961Z,1017.87
2023-02-05T04:37:14.267Z,1017.83
2023-02-05T04:38:13.583Z,1017.79
2023-02-05T04:39:13.702Z,1017.83
2023-02-05T04:40:14.105Z,1017.86
2023-02-05T04:41:13.270Z,1017.83
2023-02-05T04:42:13.238Z,1017.81
2023-02-05T04:43:13.319Z,1017.82
2023-02-05T04:44:13.280Z,1017.80
2023-02-05T04:45:18.217Z,1017.83
2023-02-05T04:46:13.444Z,1017.83
2023-02-05T04:47:13.534Z,1017.84
2023-02-05T04:48:13.426Z,1017.84
2023-02-05T04:49:13.452Z,1017.84
2023-02-05T04:50:13.352Z,1017.83
2023-02-05T04:51:13.435Z,1017.80
2023-02-05T04:52:13.290Z,1017.81
2023-02-05T04:53:13.475Z,1017.79
2023-02-05T04:54:13.575Z,1017.74
2023-02-05T04:55:13.726Z,1017.82
2023-02-05T04:56:13.839Z,1017.83
2023-02-05T04:57:14.069Z,1017.89
2023-02-05T04:58:12.877Z,1017.91
2023-02-05T04:59:13.759Z,1017.97
2023-02-05T05:00:13.618Z,1017.99
2023-02-05T05:01:13.587Z,1017.98
2023-02-05T05:02:13.580Z,1018.01
2023-02-05T05:03:13.529Z,1017.96
2023-02-05T05:04:13.453Z,1017.96
2023-02-05T05:05:13.525Z,1017.97
2023-02-05T05:06:14.082Z,1018.00
2023-02-05T05:07:12.932Z,1017.98
2023-02-05T05:08:12.871Z,1017.97
2023-02-05T05:09:14.334Z,1018.01
2023-02-05T05:10:13.270Z,1017.97
2023-02-05T05:11:13.270Z,1017.97
2023-02-05T05:12:13.161Z,1018.00
2023-02-05T05:13:13.437Z,1017.97
2023-02-05T05:14:13.490Z,1017.93
2023-02-05T05:15:13.683Z,1017.86
2023-02-05T05:16:13.813Z,1017.89
2023-02-05T05:17:14.012Z,1017.84
2023-02-05T05:18:13.136Z,1017.81
2023-02-05T05:19:13.094Z,1017.80
2023-02-05T05:20:13.231Z,1017.81
2023-02-05T05:21:13.285Z,1017.81
2023-02-05T05:22:13.420Z,1017.77
2023-02-05T05:23:13.505Z,1017.75
2023-02-05T05:24:13.433Z,1017.68
2023-02-05T05:25:13.685Z,1017.66
2023-02-05T05:26:14.030Z,1017.61
2023-02-05T05:27:13.063Z,1017.62
2023-02-05T05:28:13.052Z,1017.64
2023-02-05T05:29:13.030Z,1017.60
2023-02-05T05:30:12.920Z,1017.53
2023-02-05T05:31:12.913Z,1017.53
2023-02-05T05:32:13.017Z,1017.56
2023-02-05T05:33:13.007Z,1017.52
2023-02-05T05:34:12.918Z,1017.50
2023-02-05T05:35:12.897Z,1017.47
2023-02-05T05:36:13.053Z,1017.46
2023-02-05T05:37:13.319Z,1017.49
2023-02-05T05:38:13.253Z,1017.53
2023-02-05T05:39:13.356Z,1017.56
2023-02-05T05:40:13.489Z,1017.58
2023-02-05T05:41:13.576Z,1017.60
2023-02-05T05:42:13.401Z,1017.64
2023-02-05T05:43:13.387Z,1017.63
2023-02-05T05:44:13.772Z,1017.62
2023-02-05T05:45:13.761Z,1017.59
2023-02-05T05:46:13.683Z,1017.55
2023-02-05T05:47:13.638Z,1017.57
2023-02-05T05:48:25.602Z,1017.54
2023-02-05T05:49:14.241Z,1017.55
2023-02-05T05:50:13.675Z,1017.59
2023-02-05T05:51:13.991Z,1017.57
2023-02-05T05:52:13.530Z,1017.58
2023-02-05T05:53:13.429Z,1017.52
2023-02-05T05:54:13.637Z,1017.55
2023-02-05T05:55:50.173Z,1017.55
2023-02-05T05:56:13.442Z,1017.55
2023-02-05T05:57:13.841Z,1017.61
2023-02-05T05:58:24.254Z,1017.53
2023-02-05T05:59:13.339Z,1017.55
2023-02-05T06:00:55.669Z,1017.56
2023-02-05T06:01:13.987Z,1017.54
2023-02-05T06:02:13.235Z,1017.53
2023-02-05T06:03:13.175Z,1017.55
2023-02-05T06:04:13.161Z,1017.56
2023-02-05T06:05:13.580Z,1017.51
2023-02-05T06:06:13.843Z,1017.54
2023-02-05T06:07:13.936Z,1017.51
2023-02-05T06:08:42.256Z,1017.52
2023-02-05T06:09:13.226Z,1017.49
2023-02-05T06:10:13.328Z,1017.50
2023-02-05T06:11:13.463Z,1017.52
2023-02-05T06:12:13.694Z,1017.51
2023-02-05T06:13:13.831Z,1017.52
2023-02-05T06:14:13.904Z,1017.55
2023-02-05T06:15:13.100Z,1017.53
2023-02-05T06:16:13.198Z,1017.58
2023-02-05T06:17:13.789Z,1017.55
2023-02-05T06:18:13.956Z,1017.55
2023-02-05T06:19:13.220Z,1017.55
2023-02-05T06:20:13.226Z,1017.57
2023-02-05T06:21:13.576Z,1017.60
2023-02-05T06:22:20.741Z,1017.58
2023-02-05T06:23:13.980Z,1017.62
2023-02-05T06:24:13.595Z,1017.61
2023-02-05T06:25:14.086Z,1017.61
2023-02-05T06:26:13.621Z,1017.57
2023-02-05T06:27:13.880Z,1017.60
2023-02-05T06:28:13.414Z,1017.58
2023-02-05T06:29:14.090Z,1017.54
2023-02-05T06:30:13.298Z,1017.53
2023-02-05T06:31:13.751Z,1017.51
2023-02-05T06:32:13.803Z,1017.53
2023-02-05T06:33:13.948Z,1017.51
2023-02-05T06:34:12.972Z,1017.46
2023-02-05T06:35:12.983Z,1017.48
2023-02-05T06:36:13.417Z,1017.49
2023-02-05T06:37:13.466Z,1017.46
2023-02-05T06:38:13.488Z,1017.44
2023-02-05T06:39:13.606Z,1017.44
2023-02-05T06:40:13.671Z,1017.43
2023-02-05T06:41:14.990Z,1017.41
2023-02-05T06:42:12.890Z,1017.46
2023-02-05T06:43:19.065Z,1017.39
2023-02-05T06:44:18.022Z,1017.38
2023-02-05T06:45:12.908Z,1017.40
2023-02-05T06:46:12.923Z,1017.35
2023-02-05T06:47:12.988Z,1017.36
2023-02-05T06:48:13.003Z,1017.35
2023-02-05T06:49:12.999Z,1017.28
2023-02-05T06:50:12.965Z,1017.32
2023-02-05T06:51:22.980Z,1017.28
2023-02-05T06:52:26.478Z,1017.22
2023-02-05T06:53:13.403Z,1017.27
2023-02-05T06:54:38.444Z,1017.26
2023-02-05T06:55:13.188Z,1017.23
2023-02-05T06:56:13.478Z,1017.24
2023-02-05T06:57:13.630Z,1017.23
2023-02-05T06:58:13.690Z,1017.28
2023-02-05T06:59:46.800Z,1017.28
2023-02-05T07:00:13.552Z,1017.29
2023-02-05T07:01:24.024Z,1017.25
2023-02-05T07:02:13.338Z,1017.26
2023-02-05T07:03:13.180Z,1017.23
2023-02-05T07:05:13.054Z,1017.21
2023-02-05T07:06:31.299Z,1017.21
2023-02-05T07:07:13.977Z,1017.21
2023-02-05T07:08:13.237Z,1017.20
2023-02-05T07:09:13.229Z,1017.22
2023-02-05T07:10:13.132Z,1017.19
2023-02-05T07:11:13.416Z,1017.22
2023-02-05T07:12:13.654Z,1017.20
2023-02-05T07:13:13.699Z,1017.24
2023-02-05T07:14:13.725Z,1017.21
2023-02-05T07:15:13.870Z,1017.24
2023-02-05T07:16:33.310Z,1017.23
2023-02-05T07:17:13.472Z,1017.21
2023-02-05T07:18:13.457Z,1017.19
2023-02-05T07:20:13.447Z,1017.13
2023-02-05T07:21:14.067Z,1017.10
2023-02-05T07:22:26.956Z,1017.08
2023-02-05T07:23:13.138Z,1017.06
2023-02-05T07:24:13.217Z,1017.05
2023-02-05T07:25:13.486Z,1017.05
2023-02-05T07:27:13.410Z,1016.99
2023-02-05T07:28:13.771Z,1016.99
2023-02-05T07:29:13.838Z,1016.96
2023-02-05T07:30:13.741Z,1016.95
2023-02-05T07:31:13.730Z,1016.98
2023-02-05T07:33:13.452Z,1016.96
2023-02-05T07:34:15.033Z,1016.96
2023-02-05T07:35:13.094Z,1016.98
2023-02-05T07:36:13.211Z,1016.99
2023-02-05T07:39:12.977Z,1016.94
2023-02-05T07:41:27.476Z,1016.92
2023-02-05T07:42:13.541Z,1016.96
2023-02-05T07:43:18.692Z,1016.95
2023-02-05T07:44:18.750Z,1016.97
2023-02-05T07:45:14.062Z,1016.95
2023-02-05T07:46:13.538Z,1016.99
2023-02-05T07:47:13.575Z,1017.00
2023-02-05T07:48:47.382Z,1017.01
2023-02-05T07:50:13.183Z,1017.02
2023-02-05T07:51:42.908Z,1017.02
2023-02-05T07:52:13.377Z,1017.04
2023-02-05T07:53:13.885Z,1017.04
2023-02-05T07:54:44.325Z,1017.05
2023-02-05T07:55:13.397Z,1016.99
2023-02-05T07:56:13.457Z,1017.02
2023-02-05T07:57:13.772Z,1017.05
2023-02-05T07:58:13.746Z,1017.18
2023-02-05T07:59:13.960Z,1017.09
2023-02-05T08:00:14.579Z,1017.09
2023-02-05T08:01:56.615Z,1017.14
2023-02-05T08:02:13.829Z,1017.14
2023-02-05T08:03:13.921Z,1017.11
2023-02-05T08:04:13.453Z,1017.14
2023-02-05T08:05:13.978Z,1017.16
2023-02-05T08:06:18.109Z,1017.14
2023-02-05T08:07:26.469Z,1017.14
2023-02-05T08:08:18.627Z,1017.16
2023-02-05T08:09:46.741Z,1017.17
2023-02-05T08:10:13.533Z,1017.15
2023-02-05T08:11:13.935Z,1017.15
2023-02-05T08:12:12.965Z,1017.15
2023-02-05T08:13:12.992Z,1017.14
2023-02-05T08:14:13.281Z,1017.16
2023-02-05T08:15:13.511Z,1017.19
2023-02-05T08:16:13.730Z,1017.17
2023-02-05T08:17:13.872Z,1017.14
2023-02-05T08:18:13.767Z,1017.14
2023-02-05T08:19:13.829Z,1017.14
2023-02-05T08:20:14.039Z,1017.14
2023-02-05T08:21:13.417Z,1017.14
2023-02-05T08:22:13.607Z,1017.11
2023-02-05T08:23:28.775Z,1017.11
2023-02-05T08:24:13.713Z,1017.15
2023-02-05T08:25:13.656Z,1017.10
2023-02-05T08:26:13.808Z,1017.09
2023-02-05T08:27:13.929Z,1017.09
2023-02-05T08:28:13.060Z,1017.04
2023-02-05T08:29:13.280Z,1017.08
2023-02-05T08:31:17.004Z,1017.04
2023-02-05T08:32:13.383Z,1016.99
2023-02-05T08:33:13.342Z,1017.03
2023-02-05T08:34:13.355Z,1017.03
2023-02-05T08:35:13.335Z,1017.04
2023-02-05T08:36:13.805Z,1016.97
2023-02-05T08:37:14.111Z,1016.97
2023-02-05T08:38:13.407Z,1017.01
2023-02-05T08:39:13.715Z,1016.95
2023-02-05T08:40:13.785Z,1016.95
2023-02-05T08:41:13.975Z,1016.93
2023-02-05T08:42:13.146Z,1016.92
2023-02-05T08:43:13.433Z,1016.97
2023-02-05T08:44:13.338Z,1016.97
2023-02-05T08:45:13.377Z,1016.93
2023-02-05T08:46:13.437Z,1016.95
2023-02-05T08:47:13.412Z,1016.94
2023-02-05T08:49:13.640Z,1016.92
2023-02-05T08:50:13.487Z,1016.90
2023-02-05T08:51:13.539Z,1016.87
2023-02-05T08:52:13.818Z,1016.95
2023-02-05T08:54:18.188Z,1016.88
2023-02-05T08:55:13.529Z,1017.07
2023-02-05T08:58:25.001Z,1017.01
2023-02-05T09:00:18.209Z,1016.87
2023-02-05T09:01:13.407Z,1016.99
2023-02-05T09:02:14.778Z,1016.96
2023-02-05T09:03:13.970Z,1017.03
2023-02-05T09:05:13.974Z,1017.05
2023-02-05T09:06:20.983Z,1017.05
2023-02-05T09:07:14.348Z,1017.08
2023-02-05T09:08:13.510Z,1017.27
2023-02-05T09:09:13.876Z,1017.08
2023-02-05T09:10:14.130Z,1017.09
2023-02-05T09:11:34.805Z,1017.17
2023-02-05T09:12:50.471Z,1017.06
2023-02-05T09:13:18.246Z,1017.10
2023-02-05T09:14:13.182Z,1017.21
2023-02-05T09:15:24.409Z,1017.13
2023-02-05T09:16:13.467Z,1017.18
2023-02-05T09:17:41.633Z,1017.22
2023-02-05T09:18:13.007Z,1017.24
2023-02-05T09:19:45.741Z,1017.17
2023-02-05T09:20:14.236Z,1017.14
2023-02-05T09:21:18.642Z,1017.24
2023-02-05T09:22:13.829Z,1017.24
2023-02-05T09:23:52.504Z,1017.30
2023-02-05T09:24:26.461Z,1017.31
2023-02-05T09:25:13.714Z,1017.33
2023-02-05T09:26:14.020Z,1017.41
2023-02-05T09:27:12.891Z,1017.29
2023-02-05T09:28:29.469Z,1017.36
2023-02-05T09:29:13.389Z,1017.40
2023-02-05T09:30:13.648Z,1017.41
2023-02-05T09:31:13.876Z,1017.37
2023-02-05T09:32:12.831Z,1017.39
2023-02-05T09:33:13.786Z,1017.38
2023-02-05T09:34:14.137Z,1017.43
2023-02-05T09:35:13.296Z,1017.32
2023-02-05T09:36:13.639Z,1017.39
2023-02-05T09:37:13.644Z,1017.36
2023-02-05T09:38:13.595Z,1017.41
2023-02-05T09:39:52.317Z,1017.39
2023-02-05T09:40:50.004Z,1017.44
2023-02-05T09:41:13.116Z,1017.40
2023-02-05T09:42:13.294Z,1017.44
2023-02-05T09:43:13.599Z,1017.44
2023-02-05T09:44:13.824Z,1017.37
2023-02-05T09:45:13.846Z,1017.40
2023-02-05T09:46:13.869Z,1017.50
2023-02-05T09:47:12.826Z,1017.44
2023-02-05T09:48:14.451Z,1017.45
2023-02-05T09:49:13.712Z,1017.43
2023-02-05T09:50:18.753Z,1017.49
2023-02-05T09:51:13.991Z,1017.47
2023-02-05T09:52:22.692Z,1017.47
2023-02-05T09:54:13.559Z,1017.48
2023-02-05T09:55:13.728Z,1017.52
2023-02-05T09:56:14.051Z,1017.53
2023-02-05T09:57:13.286Z,1017.41
2023-02-05T09:58:40.327Z,1017.55
2023-02-05T09:59:13.377Z,1017.60
2023-02-05T10:00:13.559Z,1017.53
2023-02-05T10:01:13.544Z,1017.56
2023-02-05T10:02:36.143Z,1017.52
2023-02-05T10:03:13.451Z,1017.46
2023-02-05T10:05:12.929Z,1017.51
2023-02-05T10:06:13.257Z,1017.56
2023-02-05T10:07:13.435Z,1017.49
2023-02-05T10:08:35.387Z,1017.52
2023-02-05T10:09:20.562Z,1017.47
2023-02-05T10:10:13.763Z,1017.58
2023-02-05T10:11:14.010Z,1017.54
2023-02-05T10:12:12.899Z,1017.56
2023-02-05T10:13:13.053Z,1017.53
2023-02-05T10:14:13.106Z,1017.47
2023-02-05T10:15:13.031Z,1017.49
2023-02-05T10:16:13.318Z,1017.48
2023-02-05T10:17:13.244Z,1017.52
2023-02-05T10:18:13.127Z,1017.49
2023-02-05T10:19:18.514Z,1017.51
2023-02-05T10:20:13.768Z,1017.50
2023-02-05T10:21:13.724Z,1017.52
2023-02-05T10:22:13.674Z,1017.54
2023-02-05T10:23:13.986Z,1017.59
2023-02-05T10:24:13.453Z,1017.51
2023-02-05T10:25:13.756Z,1017.54
2023-02-05T10:26:13.835Z,1017.49
2023-02-05T10:27:14.155Z,1017.49
2023-02-05T10:28:13.324Z,1017.47
2023-02-05T10:29:13.422Z,1017.46
2023-02-05T10:30:13.340Z,1017.49
2023-02-05T10:31:13.882Z,1017.47
2023-02-05T10:32:12.931Z,1017.47
2023-02-05T10:33:13.026Z,1017.44
2023-02-05T10:34:12.994Z,1017.39
2023-02-05T10:35:12.934Z,1017.40
2023-02-05T10:36:13.103Z,1017.44
2023-02-05T10:37:13.189Z,1017.45
2023-02-05T10:38:13.503Z,1017.49
2023-02-05T10:39:14.225Z,1017.46
2023-02-05T10:40:13.338Z,1017.44
2023-02-05T10:41:13.438Z,1017.48
2023-02-05T10:42:13.535Z,1017.49
2023-02-05T10:43:13.457Z,1017.47
2023-02-05T10:44:13.333Z,1017.47
2023-02-05T10:45:13.374Z,1017.48
2023-02-05T10:46:13.332Z,1017.53
2023-02-05T10:47:13.322Z,1017.52
2023-02-05T10:48:13.264Z,1017.46
2023-02-05T10:49:13.212Z,1017.46
2023-02-05T10:50:13.471Z,1017.46
2023-02-05T10:51:13.643Z,1017.49
2023-02-05T10:52:13.819Z,1017.48
2023-02-05T10:53:14.081Z,1017.45
2023-02-05T10:54:13.030Z,1017.51
2023-02-05T10:55:12.922Z,1017.51
2023-02-05T10:56:13.173Z,1017.55
2023-02-05T10:57:13.310Z,1017.55
2023-02-05T10:58:13.656Z,1017.58
2023-02-05T10:59:13.794Z,1017.57
2023-02-05T11:00:13.745Z,1017.56
2023-02-05T11:01:13.904Z,1017.50
2023-02-05T11:02:12.932Z,1017.55
2023-02-05T11:03:13.122Z,1017.55
2023-02-05T11:04:13.004Z,1017.57
2023-02-05T11:05:13.083Z,1017.56
2023-02-05T11:06:12.976Z,1017.58
2023-02-05T11:07:13.368Z,1017.54
2023-02-05T11:08:13.410Z,1017.50
2023-02-05T11:09:13.362Z,1017.59
2023-02-05T11:10:13.214Z,1017.59
2023-02-05T11:11:13.329Z,1017.52
2023-02-05T11:12:13.398Z,1017.52
2023-02-05T11:13:13.547Z,1017.57
2023-02-05T11:14:13.531Z,1017.57
2023-02-05T11:15:13.443Z,1017.55
2023-02-05T11:16:13.548Z,1017.55
2023-02-05T11:17:13.556Z,1017.54
2023-02-05T11:18:13.550Z,1017.53
2023-02-05T11:19:14.805Z,1017.46
2023-02-05T11:20:13.834Z,1017.53
2023-02-05T11:21:13.870Z,1017.48
2023-02-05T11:22:12.836Z,1017.46
2023-02-05T11:23:14.162Z,1017.45
2023-02-05T11:24:13.066Z,1017.46
2023-02-05T11:25:12.961Z,1017.38
2023-02-05T11:26:13.054Z,1017.40
2023-02-05T11:27:17.959Z,1017.40
2023-02-05T11:28:12.953Z,1017.39
2023-02-05T11:29:12.838Z,1017.38
2023-02-05T11:30:13.911Z,1017.36
2023-02-05T11:31:13.404Z,1017.34
2023-02-05T11:32:13.962Z,1017.29
2023-02-05T11:33:13.342Z,1017.35
2023-02-05T11:34:13.442Z,1017.39
2023-02-05T11:35:13.445Z,1017.19
2023-02-05T11:36:13.636Z,1017.32
2023-02-05T11:37:13.804Z,1017.37
2023-02-05T11:38:14.073Z,1017.35
2023-02-05T11:39:13.359Z,1017.31
2023-02-05T11:40:13.427Z,1017.35
2023-02-05T11:41:13.666Z,1017.37
2023-02-05T11:42:13.682Z,1017.34
2023-02-05T11:43:14.841Z,1017.31
2023-02-05T11:44:13.795Z,1017.27
2023-02-05T11:45:13.791Z,1017.28
2023-02-05T11:46:13.824Z,1017.28
2023-02-05T11:47:14.008Z,1017.28
2023-02-05T11:48:12.959Z,1017.29
2023-02-05T11:49:13.148Z,1017.25
2023-02-05T11:50:13.073Z,1017.24
2023-02-05T11:51:13.114Z,1017.26
2023-02-05T11:52:13.196Z,1017.28
2023-02-05T11:53:13.129Z,1017.33
2023-02-05T11:54:13.040Z,1017.40
2023-02-05T11:55:13.109Z,1017.37
2023-02-05T11:56:25.143Z,1017.38
2023-02-05T11:57:13.449Z,1017.38
2023-02-05T11:58:13.471Z,1017.41
2023-02-05T11:59:13.701Z,1017.44
2023-02-05T12:00:13.913Z,1017.44
2023-02-05T12:01:13.153Z,1017.45
2023-02-05T12:02:13.171Z,1017.46
2023-02-05T12:03:13.299Z,1017.44
2023-02-05T12:04:13.236Z,1017.50
2023-02-05T12:05:13.393Z,1017.59
2023-02-05T12:06:13.466Z,1017.57
2023-02-05T12:07:13.322Z,1017.64
2023-02-05T12:08:13.382Z,1017.61
2023-02-05T12:09:13.797Z,1017.61
2023-02-05T12:10:13.816Z,1017.65
2023-02-05T12:11:13.906Z,1017.63
2023-02-05T12:12:12.847Z,1017.62
2023-02-05T12:13:14.017Z,1017.68
2023-02-05T12:14:13.510Z,1017.65
2023-02-05T12:15:13.426Z,1017.69
2023-02-05T12:16:13.381Z,1017.73
2023-02-05T12:17:13.416Z,1017.70
2023-02-05T12:18:13.403Z,1017.67
2023-02-05T12:19:13.504Z,1017.75
2023-02-05T12:20:13.581Z,1017.68
2023-02-05T12:21:13.489Z,1017.70
2023-02-05T12:22:13.538Z,1017.68